Time;durP1;ratioP1;P1;durP2;ratioP2;P2;SDS_P1;SDS_P2;PMS_P1;PMS_P2;Temp;Humidity;BMP_temperature;BMP_pressure;BME280_temperature;BME280_humidity;BME280_pressure;Samples;Min_cycle;Max_cycle;Signal;HPM_P1;HPM_P2
2022/08/31 00:05:26;;;;;;;0.30;0.17;;;16.80;78.60;;;;;;5075985;28;20528;-74
2022/08/31 00:07:52;;;;;;;0.25;0.10;;;16.80;78.60;;;;;;5102254;27;20040;-74
2022/08/31 00:10:20;;;;;;;0.10;0.10;;;16.80;78.50;;;;;;5076897;28;20047;-74
2022/08/31 00:12:47;;;;;;;0.40;0.17;;;16.80;78.30;;;;;;5075637;28;20382;-74
2022/08/31 00:15:17;;;;;;;0.30;0.10;;;16.80;78.20;;;;;;5109975;27;20044;-74
2022/08/31 00:17:43;;;;;;;1.05;0.20;;;16.70;77.70;;;;;;5104416;27;20610;-75
2022/08/31 00:20:12;;;;;;;0.65;0.20;;;16.70;77.90;;;;;;5091835;28;20035;-74
2022/08/31 00:22:38;;;;;;;0.20;0.10;;;16.70;77.80;;;;;;5075725;28;20047;-74
2022/08/31 00:25:05;;;;;;;0.35;0.20;;;16.70;77.70;;;;;;5066693;28;20049;-75
2022/08/31 00:27:30;;;;;;;0.30;0.10;;;16.70;78.10;;;;;;5101795;27;20041;-74
2022/08/31 00:29:56;;;;;;;0.00;0.00;;;16.70;77.80;;;;;;5075423;28;20037;-74
2022/08/31 00:32:21;;;;;;;0.75;0.20;;;16.60;77.50;;;;;;5071557;28;20115;-74
2022/08/31 00:34:47;;;;;;;0.30;0.20;;;16.60;77.60;;;;;;5071947;28;20049;-74
2022/08/31 00:37:13;;;;;;;0.20;0.10;;;16.60;77.10;;;;;;5103240;27;20375;-74
2022/08/31 00:39:38;;;;;;;0.10;0.10;;;16.60;77.10;;;;;;5105741;27;20589;-74
2022/08/31 00:42:06;;;;;;;0.60;0.20;;;16.60;76.70;;;;;;5101585;27;20097;-74
2022/08/31 00:44:31;;;;;;;0.13;0.10;;;16.60;76.50;;;;;;5070044;28;20040;-74
2022/08/31 00:46:57;;;;;;;0.15;0.10;;;16.60;76.60;;;;;;5069882;28;20090;-74
2022/08/31 00:49:27;;;;;;;1.13;0.20;;;16.60;76.50;;;;;;5059705;28;20119;-74
2022/08/31 00:51:57;;;;;;;0.10;0.03;;;16.50;76.40;;;;;;5101332;27;20533;-74
2022/08/31 00:54:32;;;;;;;0.40;0.20;;;16.50;76.20;;;;;;5100458;27;20549;-74
2022/08/31 00:56:58;;;;;;;0.10;0.10;;;16.50;76.10;;;;;;5071736;28;20067;-75
2022/08/31 00:59:24;;;;;;;0.30;0.13;;;16.50;76.10;;;;;;5102253;27;20111;-74
2022/08/31 01:01:50;;;;;;;0.30;0.10;;;16.50;76.10;;;;;;5053870;28;20055;-74
2022/08/31 01:04:16;;;;;;;1.27;0.38;;;16.50;76.00;;;;;;5062107;28;20048;-74
2022/08/31 01:06:42;;;;;;;0.40;0.20;;;16.50;76.30;;;;;;5058020;28;20043;-74
2022/08/31 01:09:09;;;;;;;0.50;0.10;;;16.40;76.20;;;;;;5063744;28;20406;-74
2022/08/31 01:11:36;;;;;;;0.50;0.10;;;16.40;76.00;;;;;;5091047;28;20520;-74
2022/08/31 01:14:02;;;;;;;0.25;0.10;;;16.40;76.40;;;;;;5102173;27;20044;-74
2022/08/31 01:16:36;;;;;;;0.10;0.10;;;16.40;76.00;;;;;;5069483;28;20035;-74
2022/08/31 01:19:04;;;;;;;0.45;0.10;;;16.40;75.80;;;;;;5059293;28;20062;-74
2022/08/31 01:21:43;;;;;;;0.20;0.10;;;16.30;75.90;;;;;;5066750;28;20043;-74
2022/08/31 01:24:10;;;;;;;0.73;0.20;;;16.40;75.70;;;;;;5070149;28;20410;-74
2022/08/31 01:26:37;;;;;;;0.20;0.10;;;16.30;75.50;;;;;;5065843;28;20466;-74
2022/08/31 01:29:05;;;;;;;0.13;0.05;;;16.30;75.40;;;;;;5061671;28;20031;-74
2022/08/31 01:31:35;;;;;;;0.40;0.10;;;16.20;75.60;;;;;;5072571;28;20047;-74
2022/08/31 01:34:01;;;;;;;0.25;0.10;;;16.30;75.40;;;;;;5069432;28;20074;-74
2022/08/31 01:36:27;;;;;;;0.00;0.00;;;16.20;75.10;;;;;;5070181;28;20414;-75
2022/08/31 01:38:53;;;;;;;0.00;0.00;;;16.20;75.20;;;;;;5059606;28;20036;-74
2022/08/31 01:41:19;;;;;;;0.43;0.10;;;16.20;75.00;;;;;;5070411;28;20063;-74
2022/08/31 01:43:45;;;;;;;0.22;0.17;;;16.20;75.10;;;;;;5097866;27;20646;-74
2022/08/31 01:46:12;;;;;;;0.52;0.15;;;16.10;74.90;;;;;;5061640;28;20040;-74
2022/08/31 01:48:40;;;;;;;0.50;0.10;;;16.10;74.80;;;;;;5066764;28;20040;-75
2022/08/31 01:51:06;;;;;;;0.40;0.20;;;16.10;74.70;;;;;;5061142;28;20028;-74
2022/08/31 01:53:32;;;;;;;0.13;0.10;;;16.10;74.50;;;;;;5101480;27;20047;-74
2022/08/31 01:55:57;;;;;;;0.50;0.10;;;16.00;74.60;;;;;;5057620;28;20060;-74
2022/08/31 01:58:23;;;;;;;0.10;0.10;;;16.00;74.50;;;;;;5074655;28;20971;-74
2022/08/31 02:00:49;;;;;;;2.97;0.20;;;16.00;74.70;;;;;;5066531;28;20040;-74
2022/08/31 02:03:15;;;;;;;0.10;0.10;;;16.00;74.30;;;;;;5103747;27;20050;-74
2022/08/31 02:05:41;;;;;;;0.17;0.05;;;15.90;74.70;;;;;;5067459;28;20032;-74
2022/08/31 02:08:09;;;;;;;0.55;0.08;;;15.80;74.40;;;;;;5084433;28;20036;-74
2022/08/31 02:10:34;;;;;;;0.10;0.08;;;15.90;74.10;;;;;;5071244;28;20086;-74
2022/08/31 02:13:00;;;;;;;0.40;0.10;;;15.70;73.80;;;;;;5105100;27;20599;-74
2022/08/31 02:15:26;;;;;;;0.10;0.10;;;15.70;74.20;;;;;;5085272;28;20041;-74
2022/08/31 02:17:51;;;;;;;0.75;0.20;;;15.70;74.30;;;;;;5068500;28;20043;-74
2022/08/31 02:20:17;;;;;;;0.57;0.10;;;15.70;74.40;;;;;;5073500;28;20447;-74
2022/08/31 02:22:43;;;;;;;0.20;0.17;;;15.60;74.60;;;;;;5067727;28;20061;-74
2022/08/31 02:25:10;;;;;;;0.00;0.00;;;15.60;74.50;;;;;;5068703;28;20048;-74
2022/08/31 02:27:35;;;;;;;0.10;0.00;;;15.60;74.70;;;;;;5069478;28;20037;-74
2022/08/31 02:30:07;;;;;;;0.93;0.10;;;15.50;75.10;;;;;;5099635;28;20036;-74
2022/08/31 02:32:33;;;;;;;0.20;0.10;;;15.50;74.70;;;;;;5067766;28;20393;-74
2022/08/31 02:34:58;;;;;;;0.50;0.20;;;15.40;75.00;;;;;;5067567;28;21451;-74
2022/08/31 02:37:24;;;;;;;0.35;0.15;;;15.40;75.20;;;;;;5074203;28;20139;-74
2022/08/31 02:39:50;;;;;;;0.08;0.08;;;15.30;75.20;;;;;;5067780;28;20036;-74
2022/08/31 02:42:15;;;;;;;0.10;0.10;;;15.30;75.50;;;;;;5069119;28;20078;-74
2022/08/31 02:44:41;;;;;;;0.10;0.10;;;15.20;76.50;;;;;;5065885;28;20489;-74
2022/08/31 02:47:06;;;;;;;0.32;0.10;;;15.20;76.00;;;;;;5060094;28;20032;-74
2022/08/31 02:49:32;;;;;;;0.30;0.08;;;15.10;76.30;;;;;;5090429;28;20032;-74
2022/08/31 02:51:58;;;;;;;0.22;0.10;;;15.10;76.70;;;;;;5067182;28;20513;-74
2022/08/31 02:54:23;;;;;;;0.10;0.10;;;15.00;77.80;;;;;;5097571;28;20037;-74
2022/08/31 02:56:49;;;;;;;0.10;0.10;;;15.00;78.00;;;;;;5070399;28;20488;-74
2022/08/31 02:59:15;;;;;;;0.65;0.10;;;14.90;77.70;;;;;;5068210;28;20181;-74
2022/08/31 03:01:41;;;;;;;1.27;0.47;;;14.90;78.10;;;;;;5089730;28;20045;-74
2022/08/31 03:04:07;;;;;;;0.20;0.10;;;14.80;78.50;;;;;;5059054;28;20059;-74
2022/08/31 03:06:32;;;;;;;0.30;0.20;;;14.80;78.70;;;;;;5101716;27;20037;-74
2022/08/31 03:08:59;;;;;;;0.17;0.17;;;14.80;79.10;;;;;;5067866;28;20036;-74
2022/08/31 03:11:25;;;;;;;0.52;0.15;;;14.80;79.50;;;;;;5075701;28;20122;-74
2022/08/31 03:13:51;;;;;;;0.10;0.10;;;14.70;79.60;;;;;;5073555;28;20498;-75
2022/08/31 03:16:17;;;;;;;0.20;0.20;;;14.70;79.90;;;;;;5072767;28;20039;-74
2022/08/31 03:18:43;;;;;;;0.35;0.30;;;14.70;80.30;;;;;;5071124;28;20067;-74
2022/08/31 03:21:08;;;;;;;0.10;0.10;;;14.60;80.30;;;;;;5071648;28;20155;-74
2022/08/31 03:23:34;;;;;;;0.13;0.13;;;14.60;80.60;;;;;;5078136;28;20547;-74
2022/08/31 03:26:00;;;;;;;1.00;0.22;;;14.60;80.70;;;;;;5076275;28;20553;-74
2022/08/31 03:28:25;;;;;;;0.10;0.10;;;14.60;81.00;;;;;;5079573;28;20533;-74
2022/08/31 03:30:51;;;;;;;0.22;0.10;;;14.60;81.30;;;;;;5075249;28;20555;-74
2022/08/31 03:33:17;;;;;;;1.80;0.20;;;14.50;81.40;;;;;;5068237;28;20115;-74
2022/08/31 03:35:43;;;;;;;0.10;0.10;;;14.50;81.50;;;;;;5060884;28;20425;-74
2022/08/31 03:38:11;;;;;;;0.10;0.10;;;14.50;81.80;;;;;;5071629;28;20177;-74
2022/08/31 03:40:38;;;;;;;0.30;0.10;;;14.50;81.90;;;;;;5083725;28;20033;-74
2022/08/31 03:43:03;;;;;;;0.35;0.13;;;14.40;82.00;;;;;;5108332;27;20036;-74
2022/08/31 03:45:30;;;;;;;0.30;0.13;;;14.50;82.30;;;;;;5106396;27;20512;-75
2022/08/31 03:47:58;;;;;;;0.13;0.10;;;14.50;82.40;;;;;;5072983;28;20040;-74
2022/08/31 03:50:24;;;;;;;0.70;0.20;;;14.50;82.60;;;;;;5095965;28;20151;-75
2022/08/31 03:52:49;;;;;;;0.00;0.00;;;14.50;82.80;;;;;;5068556;28;20047;-74
2022/08/31 03:55:15;;;;;;;0.88;0.22;;;14.50;82.80;;;;;;5098763;28;20059;-74
2022/08/31 03:57:41;;;;;;;0.57;0.20;;;14.50;83.00;;;;;;5072803;28;20051;-74
2022/08/31 04:00:08;;;;;;;1.42;0.30;;;14.50;83.00;;;;;;5078370;28;20645;-74
2022/08/31 04:02:38;;;;;;;2.95;0.38;;;14.50;83.20;;;;;;5059802;28;20177;-74
2022/08/31 04:05:04;;;;;;;0.20;0.20;;;14.40;83.30;;;;;;5069029;28;20167;-74
2022/08/31 04:07:29;;;;;;;0.73;0.10;;;14.40;83.50;;;;;;5090867;28;20044;-74
2022/08/31 04:09:55;;;;;;;0.70;0.30;;;14.40;83.60;;;;;;5102829;27;20398;-74
2022/08/31 04:12:21;;;;;;;0.50;0.22;;;14.30;83.70;;;;;;5072770;28;20064;-74
2022/08/31 04:14:46;;;;;;;0.65;0.32;;;14.30;84.10;;;;;;5074185;28;20936;-74
2022/08/31 04:17:12;;;;;;;0.88;0.28;;;14.20;84.30;;;;;;5077327;28;20048;-74
2022/08/31 04:19:40;;;;;;;0.17;0.13;;;14.20;84.50;;;;;;5103888;27;20060;-74
2022/08/31 04:22:06;;;;;;;0.47;0.20;;;14.20;84.80;;;;;;5067511;28;20517;-74
2022/08/31 04:24:32;;;;;;;0.43;0.13;;;14.20;85.00;;;;;;5109731;27;20044;-74
2022/08/31 04:26:57;;;;;;;0.57;0.20;;;14.20;85.10;;;;;;5069696;28;20041;-74
2022/08/31 04:29:23;;;;;;;0.65;0.17;;;14.10;85.40;;;;;;5096491;28;20063;-74
2022/08/31 04:31:49;;;;;;;0.52;0.20;;;14.10;85.30;;;;;;5069534;28;20044;-74
2022/08/31 04:34:14;;;;;;;0.20;0.10;;;14.10;85.60;;;;;;5069443;28;20051;-74
2022/08/31 04:36:40;;;;;;;0.65;0.20;;;14.10;85.80;;;;;;5073170;28;20074;-74
2022/08/31 04:39:06;;;;;;;0.35;0.20;;;14.00;85.90;;;;;;5067222;28;20036;-74
2022/08/31 04:41:35;;;;;;;0.22;0.10;;;14.00;86.00;;;;;;5070555;28;20036;-74
2022/08/31 04:44:02;;;;;;;0.10;0.10;;;14.00;86.30;;;;;;5071702;28;20096;-74
2022/08/31 04:46:29;;;;;;;0.40;0.15;;;14.00;86.50;;;;;;5056920;28;20032;-74
2022/08/31 04:48:56;;;;;;;1.38;0.35;;;14.00;86.70;;;;;;5068538;28;20072;-74
2022/08/31 04:51:28;;;;;;;0.28;0.13;;;14.00;86.80;;;;;;5097922;28;20082;-74
2022/08/31 04:53:54;;;;;;;0.73;0.30;;;14.00;87.00;;;;;;5062505;28;20047;-74
2022/08/31 04:56:26;;;;;;;0.43;0.22;;;14.00;87.00;;;;;;5068279;28;20040;-74
2022/08/31 04:58:54;;;;;;;0.38;0.20;;;14.00;87.30;;;;;;5100828;27;20443;-74
2022/08/31 05:01:22;;;;;;;0.15;0.10;;;14.00;87.40;;;;;;5073283;28;20044;-74
2022/08/31 05:03:51;;;;;;;0.32;0.20;;;14.00;87.50;;;;;;5069496;28;20479;-74
2022/08/31 05:06:19;;;;;;;0.30;0.20;;;14.00;87.50;;;;;;5064559;28;20491;-74
2022/08/31 05:08:44;;;;;;;0.20;0.13;;;13.90;87.70;;;;;;5073632;28;20076;-74
2022/08/31 05:11:11;;;;;;;0.40;0.25;;;13.90;88.10;;;;;;5065563;28;20064;-74
2022/08/31 05:13:37;;;;;;;0.55;0.30;;;13.90;88.20;;;;;;5067353;28;20036;-74
2022/08/31 05:16:04;;;;;;;0.10;0.10;;;13.90;88.20;;;;;;5074694;28;20039;-74
2022/08/31 05:18:30;;;;;;;0.40;0.13;;;13.90;88.30;;;;;;5058684;28;20047;-74
2022/08/31 05:20:56;;;;;;;0.20;0.20;;;13.90;88.50;;;;;;5099004;27;20043;-74
2022/08/31 05:23:21;;;;;;;0.82;0.20;;;13.90;88.70;;;;;;5074985;28;20426;-74
2022/08/31 05:25:47;;;;;;;0.85;0.30;;;13.90;88.70;;;;;;5070483;28;20051;-74
2022/08/31 05:28:13;;;;;;;0.55;0.30;;;13.90;88.80;;;;;;5071097;28;20036;-74
2022/08/31 05:30:43;;;;;;;0.50;0.25;;;13.90;88.80;;;;;;5063212;28;21537;-74
2022/08/31 05:33:09;;;;;;;0.28;0.20;;;13.90;89.10;;;;;;5100413;28;20044;-74
2022/08/31 05:35:35;;;;;;;1.23;0.30;;;13.90;89.20;;;;;;5081427;28;20032;-74
2022/08/31 05:38:00;;;;;;;0.43;0.10;;;13.90;89.30;;;;;;5101809;27;20111;-75
2022/08/31 05:40:26;;;;;;;0.13;0.10;;;13.90;89.50;;;;;;5064325;28;20062;-74
2022/08/31 05:42:52;;;;;;;0.35;0.20;;;14.00;89.70;;;;;;5087664;28;20489;-75
2022/08/31 05:45:18;;;;;;;0.93;0.38;;;14.00;89.80;;;;;;5075419;28;20036;-75
2022/08/31 05:47:43;;;;;;;3.40;0.30;;;14.00;89.90;;;;;;5065548;28;20098;-75
2022/08/31 05:50:09;;;;;;;0.55;0.30;;;14.00;90.00;;;;;;5072730;28;20032;-74
2022/08/31 05:52:35;;;;;;;0.52;0.20;;;14.00;90.00;;;;;;5099371;27;20085;-75
2022/08/31 05:55:00;;;;;;;0.47;0.20;;;14.00;90.00;;;;;;5087787;28;20131;-73
2022/08/31 05:57:26;;;;;;;0.55;0.30;;;14.10;90.10;;;;;;5066811;28;20052;-74
2022/08/31 05:59:51;;;;;;;0.85;0.20;;;14.10;90.10;;;;;;5067718;28;20032;-75
2022/08/31 06:02:17;;;;;;;0.47;0.20;;;14.10;90.10;;;;;;5066376;28;20051;-74
2022/08/31 06:04:43;;;;;;;0.22;0.10;;;14.10;90.20;;;;;;5061292;28;20462;-74
2022/08/31 06:07:09;;;;;;;0.65;0.30;;;14.20;90.30;;;;;;5103689;27;20429;-74
2022/08/31 06:09:37;;;;;;;0.15;0.10;;;14.20;90.30;;;;;;5070241;28;20302;-74
2022/08/31 06:12:04;;;;;;;0.52;0.25;;;14.20;90.30;;;;;;5099200;27;20044;-73
2022/08/31 06:14:31;;;;;;;0.52;0.20;;;14.20;90.50;;;;;;5070680;28;20128;-73
2022/08/31 06:16:58;;;;;;;0.40;0.20;;;14.20;90.50;;;;;;5067797;28;20046;-72
2022/08/31 06:19:24;;;;;;;0.50;0.20;;;14.30;90.50;;;;;;5064583;28;20458;-73
2022/08/31 06:21:50;;;;;;;0.57;0.30;;;14.30;90.50;;;;;;5069724;28;20147;-73
2022/08/31 06:24:17;;;;;;;0.65;0.20;;;14.30;90.50;;;;;;5086894;28;20045;-73
2022/08/31 06:26:44;;;;;;;1.13;0.20;;;14.30;90.60;;;;;;5086383;28;20039;-74
2022/08/31 06:29:10;;;;;;;0.38;0.20;;;14.40;90.60;;;;;;5110501;28;21973;-75
2022/08/31 06:31:40;;;;;;;3.95;0.40;;;14.40;90.60;;;;;;5074519;28;20166;-74
2022/08/31 06:34:07;;;;;;;0.57;0.28;;;14.40;90.60;;;;;;5105941;28;20501;-74
2022/08/31 06:36:33;;;;;;;0.35;0.30;;;14.50;90.70;;;;;;5054053;28;20242;-74
2022/08/31 06:39:00;;;;;;;1.30;0.47;;;14.50;90.70;;;;;;5074420;28;20059;-74
2022/08/31 06:41:35;;;;;;;0.40;0.10;;;14.50;90.70;;;;;;5073648;28;20044;-74
2022/08/31 06:44:01;;;;;;;0.80;0.60;;;14.60;90.80;;;;;;5072964;28;20486;-74
2022/08/31 06:46:28;;;;;;;0.95;0.30;;;14.60;90.80;;;;;;5064957;28;20051;-75
2022/08/31 06:48:55;;;;;;;1.20;0.43;;;14.70;90.70;;;;;;5108400;27;20033;-75
2022/08/31 06:51:21;;;;;;;0.82;0.20;;;14.70;90.80;;;;;;5116263;27;20486;-75
2022/08/31 06:53:47;;;;;;;0.93;0.32;;;14.80;90.80;;;;;;5073885;28;20449;-74
2022/08/31 06:56:15;;;;;;;0.55;0.20;;;14.80;90.80;;;;;;5066073;28;20040;-74
2022/08/31 06:58:41;;;;;;;0.40;0.20;;;14.90;90.80;;;;;;5076084;28;20055;-75
2022/08/31 07:01:10;;;;;;;1.10;0.40;;;14.90;90.80;;;;;;5116680;27;20047;-74
2022/08/31 07:03:37;;;;;;;0.30;0.20;;;15.00;90.90;;;;;;5067478;28;20688;-74
2022/08/31 07:06:09;;;;;;;0.43;0.20;;;15.00;90.80;;;;;;5077394;28;20050;-75
2022/08/31 07:08:37;;;;;;;0.47;0.20;;;15.10;91.00;;;;;;5053732;28;20383;-74
2022/08/31 07:11:03;;;;;;;0.52;0.20;;;15.20;90.90;;;;;;5077986;28;20065;-75
2022/08/31 07:13:29;;;;;;;0.82;0.38;;;15.20;90.80;;;;;;5081768;28;20047;-74
2022/08/31 07:16:07;;;;;;;0.60;0.30;;;15.30;90.80;;;;;;5110935;27;20040;-74
2022/08/31 07:18:33;;;;;;;0.73;0.30;;;15.40;90.90;;;;;;5111124;27;20650;-74
2022/08/31 07:21:11;;;;;;;0.63;0.30;;;15.40;90.70;;;;;;5068136;28;20251;-74
2022/08/31 07:23:37;;;;;;;0.47;0.45;;;15.50;90.70;;;;;;5086495;28;20660;-74
2022/08/31 07:26:05;;;;;;;0.20;0.17;;;15.50;90.40;;;;;;5120613;27;20039;-74
2022/08/31 07:28:32;;;;;;;0.85;0.22;;;15.60;90.40;;;;;;5087378;28;20123;-74
2022/08/31 07:30:58;;;;;;;0.22;0.10;;;15.60;90.20;;;;;;5087309;28;20489;-74
2022/08/31 07:33:24;;;;;;;1.70;0.20;;;15.60;90.10;;;;;;5081062;28;20071;-73
2022/08/31 07:35:49;;;;;;;1.77;0.30;;;15.70;90.10;;;;;;5073111;28;20127;-73
2022/08/31 07:43:43;;;;;;;0.50;0.20;;;15.80;90.00;;;;;;5105501;27;20064;-74
2022/08/31 07:46:09;;;;;;;0.20;0.20;;;15.90;90.00;;;;;;5068355;28;20059;-74
2022/08/31 07:48:34;;;;;;;0.32;0.13;;;15.90;90.00;;;;;;5071052;28;20039;-73
2022/08/31 07:51:00;;;;;;;0.65;0.13;;;15.90;90.00;;;;;;5074355;28;20036;-74
2022/08/31 07:53:25;;;;;;;0.50;0.30;;;16.00;89.60;;;;;;5079810;28;20036;-74
2022/08/31 07:55:55;;;;;;;0.45;0.10;;;16.00;89.50;;;;;;5069127;28;20039;-74
2022/08/31 07:58:21;;;;;;;0.35;0.20;;;16.10;89.40;;;;;;5082121;28;20067;-74
2022/08/31 08:00:49;;;;;;;0.40;0.10;;;16.20;89.20;;;;;;5108947;27;20086;-74
2022/08/31 08:03:14;;;;;;;1.58;0.30;;;16.20;89.10;;;;;;5081792;28;20501;-74
2022/08/31 08:05:40;;;;;;;0.73;0.28;;;16.30;88.50;;;;;;5101939;27;20116;-74
2022/08/31 08:08:07;;;;;;;0.30;0.20;;;16.30;88.20;;;;;;5076793;28;20036;-75
2022/08/31 08:10:37;;;;;;;0.25;0.20;;;16.30;87.90;;;;;;5073132;28;20036;-75
2022/08/31 08:13:03;;;;;;;0.08;0.08;;;16.30;88.10;;;;;;5072687;28;20396;-74
2022/08/31 08:15:31;;;;;;;0.10;0.10;;;16.50;88.10;;;;;;5078487;28;20051;-74
2022/08/31 08:17:57;;;;;;;0.77;0.30;;;16.50;88.00;;;;;;5081280;28;20505;-75
2022/08/31 08:20:23;;;;;;;0.75;0.30;;;16.50;87.60;;;;;;5084848;28;20040;-74
2022/08/31 08:22:49;;;;;;;0.08;0.08;;;16.40;87.70;;;;;;5060732;28;20066;-74
2022/08/31 08:25:16;;;;;;;0.10;0.10;;;16.60;88.00;;;;;;5069210;28;20093;-74
2022/08/31 08:27:41;;;;;;;0.35;0.25;;;16.60;87.70;;;;;;5072074;28;20091;-75
2022/08/31 08:30:13;;;;;;;0.55;0.10;;;16.70;87.60;;;;;;5073434;28;20388;-74
2022/08/31 08:32:41;;;;;;;0.10;0.10;;;16.70;87.60;;;;;;5080757;28;20570;-74
2022/08/31 08:35:09;;;;;;;1.77;0.28;;;16.80;87.10;;;;;;5096422;28;20073;-74
2022/08/31 08:37:38;;;;;;;0.43;0.20;;;16.80;86.90;;;;;;5106076;27;20122;-74
2022/08/31 08:40:05;;;;;;;1.77;0.32;;;16.90;86.70;;;;;;5062632;28;20565;-75
2022/08/31 08:42:31;;;;;;;0.63;0.20;;;16.90;86.60;;;;;;5068179;28;20152;-74
2022/08/31 08:44:56;;;;;;;0.30;0.20;;;16.90;86.50;;;;;;5074717;28;20512;-75
2022/08/31 08:47:30;;;;;;;0.50;0.17;;;17.00;86.30;;;;;;5102558;27;20607;-75
2022/08/31 08:50:04;;;;;;;0.45;0.15;;;17.00;85.80;;;;;;5071969;28;20494;-73
2022/08/31 08:52:41;;;;;;;0.45;0.13;;;17.10;86.10;;;;;;5102865;27;20035;-73
2022/08/31 08:55:23;;;;;;;0.32;0.20;;;17.10;85.40;;;;;;5102048;27;20036;-74
2022/08/31 08:57:51;;;;;;;0.45;0.13;;;17.20;85.30;;;;;;5104956;27;20040;-74
2022/08/31 09:00:23;;;;;;;0.25;0.10;;;17.20;85.40;;;;;;5074088;28;20391;-75
2022/08/31 09:03:20;;;;;;;0.80;0.25;;;17.30;85.00;;;;;;5099306;27;20048;-74
2022/08/31 09:06:04;;;;;;;0.10;0.10;;;17.30;84.60;;;;;;5069024;28;20048;-75
2022/08/31 09:08:42;;;;;;;0.68;0.20;;;17.30;84.80;;;;;;5060167;28;20136;-74
2022/08/31 09:11:16;;;;;;;0.13;0.10;;;17.30;84.70;;;;;;5110213;27;20044;-74
2022/08/31 09:14:06;;;;;;;0.30;0.20;;;17.40;84.90;;;;;;5070977;28;20041;-75
2022/08/31 09:17:17;;;;;;;0.32;0.10;;;17.40;84.30;;;;;;5071497;28;20044;-75
2022/08/31 09:20:00;;;;;;;0.32;0.22;;;17.40;83.90;;;;;;5058795;28;20029;-75
2022/08/31 09:22:51;;;;;;;0.38;0.20;;;17.50;84.00;;;;;;5112607;27;20051;-74
2022/08/31 09:25:19;;;;;;;0.28;0.10;;;17.60;82.40;;;;;;5112609;27;20119;-75
2022/08/31 09:27:57;;;;;;;0.25;0.20;;;17.70;83.70;;;;;;5094231;28;20043;-74
2022/08/31 09:30:53;;;;;;;0.80;0.20;;;17.80;82.80;;;;;;5064922;28;20483;-74
2022/08/31 09:33:25;;;;;;;1.42;0.30;;;17.70;81.30;;;;;;5067955;28;20024;-74
2022/08/31 09:36:12;;;;;;;0.20;0.10;;;17.80;82.10;;;;;;5057347;28;20401;-74
2022/08/31 09:38:39;;;;;;;0.10;0.10;;;17.70;82.60;;;;;;5102194;27;20194;-74
2022/08/31 09:41:29;;;;;;;0.47;0.30;;;17.80;82.50;;;;;;5082670;28;20042;-74
2022/08/31 09:44:15;;;;;;;0.10;0.10;;;17.80;80.90;;;;;;5071410;28;20049;-75
2022/08/31 09:46:47;;;;;;;0.28;0.17;;;17.90;79.10;;;;;;5062600;28;20039;-74
2022/08/31 09:49:23;;;;;;;0.60;0.32;;;17.90;80.20;;;;;;5060681;28;20258;-74
2022/08/31 09:51:49;;;;;;;0.60;0.32;;;17.90;80.70;;;;;;5104930;27;20437;-75
2022/08/31 09:57:01;;;;;;;0.38;0.20;;;18.00;81.00;;;;;;5070357;28;20036;-75
2022/08/31 09:59:48;;;;;;;0.40;0.20;;;18.10;80.80;;;;;;5055776;28;20139;-76
2022/08/31 10:02:25;;;;;;;0.52;0.20;;;18.10;78.20;;;;;;5064041;28;20035;-75
2022/08/31 10:05:04;;;;;;;0.45;0.20;;;18.20;79.70;;;;;;5073355;28;20051;-76
2022/08/31 10:07:47;;;;;;;0.63;0.25;;;18.20;79.20;;;;;;5059733;28;20030;-76
2022/08/31 10:10:32;;;;;;;0.10;0.10;;;18.20;78.30;;;;;;5062529;28;20077;-76
2022/08/31 10:13:12;;;;;;;0.28;0.20;;;18.30;76.80;;;;;;5109085;27;20037;-76
2022/08/31 10:15:56;;;;;;;0.13;0.10;;;18.40;75.30;;;;;;5067221;28;21740;-74
2022/08/31 10:18:32;;;;;;;2.17;0.30;;;18.40;77.00;;;;;;5089622;28;20839;-73
2022/08/31 10:21:06;;;;;;;0.22;0.10;;;18.40;77.40;;;;;;5065899;28;20160;-73
2022/08/31 10:23:55;;;;;;;0.70;0.10;;;18.50;76.20;;;;;;5055100;28;20080;-73
2022/08/31 10:26:41;;;;;;;0.20;0.10;;;18.50;75.60;;;;;;5111852;27;20054;-73
2022/08/31 10:29:13;;;;;;;0.55;0.30;;;18.50;77.30;;;;;;5077690;28;20319;-75
2022/08/31 10:31:45;;;;;;;0.30;0.13;;;18.50;77.40;;;;;;5068089;28;20111;-74
2022/08/31 10:37:25;;;;;;;0.17;0.10;;;18.50;75.70;;;;;;5074401;28;20044;-75
2022/08/31 10:39:54;;;;;;;0.43;0.22;;;18.50;76.00;;;;;;5102248;28;20663;-75
2022/08/31 10:42:25;;;;;;;2.38;0.20;;;18.50;76.20;;;;;;5089418;28;20142;-75
2022/08/31 10:45:08;;;;;;;0.40;0.20;;;18.60;76.20;;;;;;5071313;28;20048;-75
2022/08/31 10:47:40;;;;;;;0.32;0.17;;;18.60;75.90;;;;;;5097469;27;20044;-73
2022/08/31 10:50:07;;;;;;;2.85;0.20;;;18.60;76.10;;;;;;5067590;28;20029;-74
2022/08/31 10:53:01;;;;;;;1.40;0.30;;;18.70;75.80;;;;;;5100493;28;20028;-74
2022/08/31 10:55:45;;;;;;;0.45;0.15;;;18.70;75.00;;;;;;5066212;28;20036;-74
2022/08/31 10:58:37;;;;;;;0.32;0.10;;;18.70;74.60;;;;;;5065779;28;20051;-75
2022/08/31 11:01:15;;;;;;;1.23;0.20;;;18.70;75.00;;;;;;5089766;28;20094;-75
2022/08/31 11:03:55;;;;;;;0.20;0.20;;;18.70;75.70;;;;;;5068371;28;20490;-75
2022/08/31 11:06:50;;;;;;;0.70;0.10;;;18.80;74.90;;;;;;5052579;28;20432;-74
2022/08/31 11:09:22;;;;;;;0.30;0.20;;;18.80;75.10;;;;;;5036265;28;20048;-74
2022/08/31 11:12:05;;;;;;;0.55;0.20;;;18.80;73.70;;;;;;5098745;28;20047;-74
2022/08/31 11:15:08;;;;;;;0.30;0.10;;;18.90;72.20;;;;;;5065997;28;20626;-74
2022/08/31 11:17:56;;;;;;;0.30;0.20;;;18.90;72.50;;;;;;5048535;28;20124;-74
2022/08/31 11:20:53;;;;;;;0.35;0.10;;;18.90;73.40;;;;;;5061650;28;20041;-74
2022/08/31 11:23:38;;;;;;;0.60;0.10;;;18.90;70.70;;;;;;5099676;28;20055;-74
2022/08/31 11:26:31;;;;;;;0.10;0.10;;;18.90;69.80;;;;;;5068573;28;20297;-74
2022/08/31 11:29:28;;;;;;;0.20;0.17;;;19.00;71.50;;;;;;5056484;28;20109;-74
2022/08/31 11:32:09;;;;;;;0.10;0.10;;;19.00;71.20;;;;;;5103962;27;20043;-73
2022/08/31 11:34:52;;;;;;;1.25;0.22;;;19.00;72.20;;;;;;5086080;27;20551;-74
2022/08/31 11:37:59;;;;;;;0.63;0.20;;;19.10;71.20;;;;;;5075303;28;20028;-73
2022/08/31 11:40:43;;;;;;;0.90;0.20;;;19.10;69.50;;;;;;5069340;28;20170;-74
2022/08/31 11:43:13;;;;;;;0.40;0.15;;;19.10;70.50;;;;;;5060619;28;20521;-74
2022/08/31 11:45:40;;;;;;;0.57;0.20;;;19.10;71.50;;;;;;5103300;27;20041;-73
2022/08/31 11:48:27;;;;;;;0.10;0.10;;;19.20;71.50;;;;;;5067369;28;20068;-73
2022/08/31 11:51:06;;;;;;;0.82;0.35;;;19.20;71.60;;;;;;5078922;28;20708;-74
2022/08/31 11:53:36;;;;;;;0.13;0.10;;;19.20;71.30;;;;;;5064215;28;20084;-74
2022/08/31 11:56:02;;;;;;;0.10;0.10;;;19.30;71.20;;;;;;5072795;28;20028;-74
2022/08/31 11:58:36;;;;;;;1.00;0.32;;;19.20;71.40;;;;;;5104944;27;20051;-74
2022/08/31 12:01:11;;;;;;;0.10;0.10;;;19.30;70.20;;;;;;5070840;28;20138;-74
2022/08/31 12:03:37;;;;;;;0.65;0.30;;;19.30;67.50;;;;;;5069070;28;20126;-74
2022/08/31 12:06:04;;;;;;;0.30;0.20;;;19.40;69.10;;;;;;5102914;27;20063;-74
2022/08/31 12:08:50;;;;;;;0.73;0.20;;;19.40;68.30;;;;;;5055889;28;20028;-74
2022/08/31 12:11:39;;;;;;;0.13;0.13;;;19.40;69.30;;;;;;5068809;28;20083;-74
2022/08/31 12:14:23;;;;;;;0.10;0.08;;;19.40;66.40;;;;;;5071330;28;20398;-74
2022/08/31 12:17:12;;;;;;;0.40;0.20;;;19.40;64.30;;;;;;5087313;27;20039;-74
2022/08/31 12:19:59;;;;;;;0.15;0.08;;;19.50;65.10;;;;;;5073321;28;20981;-74
2022/08/31 12:25:40;;;;;;;0.52;0.20;;;19.70;65.40;;;;;;5064863;28;20055;-74
2022/08/31 12:28:30;;;;;;;0.20;0.10;;;19.70;66.50;;;;;;5106197;27;20044;-74
2022/08/31 12:31:04;;;;;;;0.35;0.20;;;19.70;63.70;;;;;;5089999;27;20039;-73
2022/08/31 12:33:31;;;;;;;0.08;0.08;;;19.80;67.10;;;;;;5071192;28;20035;-74
2022/08/31 12:36:16;;;;;;;0.43;0.13;;;19.70;66.70;;;;;;5101977;27;20077;-74
2022/08/31 12:38:42;;;;;;;0.50;0.20;;;19.70;64.20;;;;;;5065569;28;20040;-74
2022/08/31 12:41:12;;;;;;;0.08;0.08;;;19.70;66.60;;;;;;5061492;28;20040;-74
2022/08/31 12:43:41;;;;;;;0.32;0.20;;;19.70;65.90;;;;;;5098616;27;20033;-73
2022/08/31 12:46:29;;;;;;;0.63;0.20;;;19.80;66.40;;;;;;5066637;28;20047;-74
2022/08/31 12:49:10;;;;;;;0.22;0.10;;;19.80;65.80;;;;;;5072169;28;20051;-74
2022/08/31 12:51:47;;;;;;;0.63;0.10;;;19.90;63.10;;;;;;5092062;27;20041;-74
2022/08/31 12:55:01;;;;;;;0.80;0.28;;;19.90;64.30;;;;;;5054295;28;20090;-74
2022/08/31 12:57:43;;;;;;;0.47;0.10;;;19.90;62.50;;;;;;5106226;27;20048;-74
2022/08/31 13:00:29;;;;;;;0.47;0.25;;;19.90;64.50;;;;;;5066595;28;20040;-74
2022/08/31 13:02:59;;;;;;;1.35;0.20;;;19.90;62.40;;;;;;5074849;28;20048;-74
2022/08/31 13:05:28;;;;;;;0.10;0.00;;;19.90;64.40;;;;;;5064555;28;20478;-74
2022/08/31 13:07:56;;;;;;;0.30;0.10;;;19.90;63.90;;;;;;5067967;28;20036;-74
2022/08/31 13:10:33;;;;;;;0.15;0.10;;;20.00;63.50;;;;;;5067433;28;20062;-74
2022/08/31 13:13:07;;;;;;;0.43;0.20;;;20.00;62.60;;;;;;5068871;28;20064;-74
2022/08/31 13:15:41;;;;;;;0.63;0.20;;;20.00;63.20;;;;;;5070611;28;20055;-74
2022/08/31 13:18:34;;;;;;;0.50;0.28;;;20.10;59.70;;;;;;5069633;28;20044;-74
2022/08/31 13:21:04;;;;;;;0.13;0.10;;;20.10;57.70;;;;;;5069221;28;20063;-74
2022/08/31 13:23:37;;;;;;;0.45;0.20;;;20.10;61.90;;;;;;5051514;28;20147;-74
2022/08/31 13:26:26;;;;;;;0.30;0.10;;;20.20;61.90;;;;;;5055907;28;20599;-74